Flight Track Log - Related Links

Times and Time Zones

All times are in EDT time to prevent confusion due to time zone crossing. See the N136JP flight status page for this flight to view local times or setup timezone preferences in your user account.

Time Position Orientation Groundspeed Altitude Reporting Facility
EDT Latitude Longitude Course Direction KTS MPH feet Rate Location/Type
Fri 06:27:56 PM 36.2214 -95.8989 359° North 189 217 1,200  Level Kansas City Center
Fri 06:28:32 PM 36.2569 -95.8994 359° North 224 258 2,100 1,606 Climbing Kansas City Center
Fri 06:29:07 PM 36.2889 -95.9003 359° North 241 277 3,100 2,103 Climbing Kansas City Center
Fri 06:30:09 PM 36.3592 -95.8803 13° North 265 305 5,500 2,613 Climbing Kansas City Center
Fri 06:31:11 PM 36.4017 -95.7758 63° Northeast 278 320 8,500 2,661 Climbing Kansas City Center
Fri 06:32:13 PM 36.4400 -95.6839 63° Northeast 292 336 11,000 2,419 Climbing Kansas City Center
Fri 06:33:15 PM 36.4772 -95.5875 64° Northeast 302 348 13,500 2,226 Climbing Kansas City Center
Fri 06:34:17 PM 36.5189 -95.4886 62° Northeast 308 354 15,600 1,728 Climbing Kansas City Center
Fri 06:35:20 PM 36.5592 -95.3853 64° Northeast 322 371 17,100 1,536 Climbing Kansas City Center
Fri 06:36:22 PM 36.6058 -95.2769 62° Northeast 344 396 18,800 1,694 Climbing Kansas City Center
Fri 06:37:24 PM 36.6467 -95.1644 66° East 353 406 20,600 1,742 Climbing Kansas City Center
Fri 06:38:26 PM 36.6906 -95.0533 64° Northeast 356 410 22,400 1,355 Climbing Kansas City Center
Fri 06:39:28 PM 36.7325 -94.9386 65° Northeast 360 414 23,400 968 Climbing Kansas City Center
Fri 06:40:30 PM 36.7953 -94.7925 62° Northeast 390 449 24,400 1,065 Climbing Kansas City Center
Fri 06:41:32 PM 36.8439 -94.6653 64° Northeast 402 463 25,600 1,113 Climbing Kansas City Center
Fri 06:42:34 PM 36.8919 -94.5361 65° Northeast 408 470 26,700 1,210 Climbing Kansas City Center
Fri 06:43:36 PM 36.9464 -94.4125 61° Northeast 406 467 28,100 1,258 Climbing Kansas City Center
Fri 06:44:38 PM 36.9994 -94.2897 62° Northeast 402 463 29,300 774 Climbing Kansas City Center
Fri 06:45:40 PM 37.0561 -94.1644 60° Northeast 409 471 29,700 532 Climbing Kansas City Center
Fri 06:46:42 PM 37.1122 -94.0297 62° Northeast 429 494 30,400 871 Climbing Kansas City Center
Fri 06:47:44 PM 37.1783 -93.8831 60° Northeast 433 498 31,500 1,016 Climbing Kansas City Center
Fri 06:48:46 PM 37.2344 -93.7492 62° Northeast 432 497 32,500 1,016 Climbing Kansas City Center
Fri 06:49:48 PM 37.2900 -93.6161 62° Northeast 430 495 33,600 1,113 Climbing Kansas City Center
Fri 06:50:50 PM 37.3586 -93.4600 61° Northeast 426 490 34,800 823 Climbing Kansas City Center
Fri 06:51:52 PM 37.4139 -93.3244 63° Northeast 431 496 35,300 919 Climbing Kansas City Center
Fri 06:52:54 PM 37.4728 -93.1925 61° Northeast 433 498 36,700 1,306 Climbing Kansas City Center
Fri 06:53:56 PM 37.5269 -93.0628 62° Northeast 422 486 38,000 1,016 Climbing Kansas City Center
Fri 06:54:58 PM 37.5806 -92.9367 62° Northeast 413 475 38,800 484 Climbing Kansas City Center
Fri 06:56:00 PM 37.6333 -92.8072 63° Northeast 413 475 39,000 96 Climbing Kansas City Center
Fri 06:57:03 PM 37.6944 -92.6578 63° Northeast 435 501 39,000  Level Kansas City Center
Fri 06:58:05 PM 37.7528 -92.5228 61° Northeast 439 505 39,000  Level Kansas City Center
Fri 06:59:07 PM 37.8072 -92.3831 64° Northeast 443 510 39,000  Level Kansas City Center
Fri 07:00:09 PM 37.8647 -92.2458 62° Northeast 447 514 39,000  Level Kansas City Center
Fri 07:01:11 PM 37.9319 -92.0781 63° Northeast 448 516 39,000  Level Kansas City Center
Fri 07:02:13 PM 37.9939 -91.9356 61° Northeast 442 509 39,000  Level Kansas City Center
Fri 07:03:15 PM 38.0475 -91.7958 64° Northeast 441 507 39,000  Level Kansas City Center
Fri 07:04:17 PM 38.1053 -91.6583 62° Northeast 442 509 39,000  Level Kansas City Center
Fri 07:05:19 PM 38.1600 -91.5181 64° Northeast 443 510 39,000  Level Kansas City Center
Fri 07:06:21 PM 38.2069 -91.3822 66° East 445 512 39,000  Level Kansas City Center
Fri 07:07:23 PM 38.2808 -91.2225 59° Northeast 439 505 39,000  Level Kansas City Center
Fri 07:08:25 PM 38.3325 -91.0808 65° Northeast 441 507 39,000  Level Kansas City Center
Fri 07:09:27 PM 38.3886 -90.9431 63° Northeast 440 506 39,000  Level Kansas City Center
Fri 07:10:29 PM 38.4428 -90.8047 63° Northeast 439 505 39,000  Level Kansas City Center
Fri 07:11:31 PM 38.4992 -90.6536 64° Northeast 439 505 39,000  Level Kansas City Center
Fri 07:12:33 PM 38.5550 -90.5150 63° Northeast 439 505 39,000  Level Kansas City Center
Fri 07:13:35 PM 38.6011 -90.3672 68° East 446 513 39,000  Level Kansas City Center
Fri 07:14:37 PM 38.6689 -90.2019 62° Northeast 443 510 39,000  Level Kansas City Center
Fri 07:15:40 PM 38.7228 -90.0608 64° Northeast 438 504 39,000  Level Kansas City Center
Fri 07:16:42 PM 38.7714 -89.9081 68° East 457 526 39,000  Level Kansas City Center
Fri 07:17:44 PM 38.8292 -89.7717 61° Northeast 441 507 39,000  Level Kansas City Center
Fri 07:18:46 PM 38.8869 -89.6156 65° Northeast 435 501 39,000  Level Kansas City Center
Fri 07:19:48 PM 38.9411 -89.4761 63° Northeast 436 502 39,000  Level Kansas City Center
Fri 07:20:50 PM 38.9953 -89.3358 64° Northeast 438 504 39,000  Level Kansas City Center
Fri 07:21:52 PM 39.0500 -89.1828 65° Northeast 438 504 39,000  Level Kansas City Center
Fri 07:22:54 PM 39.1047 -89.0436 63° Northeast 436 502 39,000  Level Kansas City Center
Fri 07:23:56 PM 39.1556 -88.9017 65° Northeast 439 505 39,000  Level Kansas City Center
Fri 07:26:00 PM 39.2575 -88.6200 65° Northeast 435 501 39,000  Level Kansas City Center
Fri 07:27:02 PM 39.3158 -88.4719 63° Northeast 432 497 39,000  Level Kansas City Center
Fri 07:28:04 PM 39.3650 -88.3292 66° East 432 497 39,000  Level Kansas City Center
Fri 07:29:06 PM 39.4156 -88.1908 65° Northeast 428 493 39,000  Level Kansas City Center
Fri 07:30:08 PM 39.4639 -88.0503 66° East 426 490 39,000  Level Kansas City Center
Fri 07:31:09 PM 39.5183 -87.8972 65° Northeast 427 491 39,000  Level Indianapolis Center
Fri 07:32:11 PM 39.5689 -87.7567 65° Northeast 430 495 39,000  Level Indianapolis Center
Fri 07:33:13 PM 39.6158 -87.6139 67° East 433 498 39,000  Level Indianapolis Center
Fri 07:34:15 PM 39.6786 -87.4461 64° Northeast 431 496 39,000  Level Indianapolis Center
Fri 07:35:04 PM 39.7156 -87.3317 67° East 431 496 39,000  Level Indianapolis Center
Fri 07:36:06 PM 39.7686 -87.1917 64° Northeast 432 497 39,000  Level Indianapolis Center
Fri 07:37:08 PM 39.8158 -87.0464 67° East 436 502 39,000  Level Indianapolis Center
Fri 07:38:10 PM 39.8675 -86.9053 64° Northeast 433 498 39,000  Level Indianapolis Center
Fri 07:39:12 PM 39.8981 -86.7519 75° East 453 521 39,000  Level Indianapolis Center
Fri 07:40:13 PM 39.9078 -86.5872 86° East 455 524 39,000  Level Indianapolis Center
Fri 07:41:15 PM 39.9350 -86.4281 77° East 449 517 39,000  Level Indianapolis Center
Fri 07:42:17 PM 39.9553 -86.2647 81° East 450 518 39,000  Level Indianapolis Center
Fri 07:43:19 PM 39.9789 -86.0689 81° East 451 519 39,000  Level Indianapolis Center
Fri 07:44:20 PM 39.9983 -85.9078 81° East 449 517 39,000  Level Indianapolis Center
Fri 07:45:22 PM 40.0181 -85.7453 81° East 452 520 39,000  Level Indianapolis Center
Fri 07:46:24 PM 40.0389 -85.5856 80° East 449 517 39,000  Level Indianapolis Center
Fri 07:47:26 PM 40.0578 -85.4225 81° East 455 524 39,000  Level Indianapolis Center
Fri 07:48:27 PM 40.0800 -85.2603 80° East 454 522 39,000  Level Indianapolis Center
Fri 07:49:29 PM 40.0961 -85.0958 83° East 457 526 39,000  Level Indianapolis Center
Fri 07:50:31 PM 40.1208 -84.9008 81° East 458 527 39,000  Level Indianapolis Center
Fri 07:51:32 PM 40.1347 -84.7550 83° East 460 529 39,000  Level Indianapolis Center
Fri 07:52:34 PM 40.1558 -84.5914 80° East 459 528 39,000  Level Indianapolis Center
Fri 07:53:36 PM 40.1775 -84.3914 82° East 461 531 39,000  Level Indianapolis Center
Fri 07:54:37 PM 40.1975 -84.2244 81° East 464 534 39,000  Level Indianapolis Center
Fri 07:55:39 PM 40.2144 -84.0558 82° East 467 537 39,000  Level Indianapolis Center
Fri 07:56:41 PM 40.2322 -83.8869 82° East 467 537 39,000  Level Indianapolis Center
Fri 07:57:43 PM 40.2511 -83.7178 82° East 467 537 39,000  Level Indianapolis Center
Fri 07:58:44 PM 40.2669 -83.5469 83° East 469 540 39,000  Level Indianapolis Center
Fri 07:59:46 PM 40.2861 -83.3797 81° East 464 534 39,000  Level Indianapolis Center
Fri 08:00:48 PM 40.3006 -83.2083 84° East 469 540 39,000  Level Indianapolis Center
Fri 08:01:50 PM 40.3206 -83.0394 81° East 468 539 39,000  Level Indianapolis Center
Fri 08:02:51 PM 40.3383 -82.8347 83° East 470 541 39,000  Level Indianapolis Center
Fri 08:03:53 PM 40.3550 -82.6717 82° East 471 542 39,000  Level Indianapolis Center
Fri 08:04:55 PM 40.3669 -82.4975 85° East 475 547 39,000  Level Indianapolis Center
Fri 08:05:56 PM 40.3881 -82.3275 81° East 471 542 39,000  Level Indianapolis Center
Fri 08:06:58 PM 40.4014 -82.1558 84° East 471 542 39,000  Level Indianapolis Center
Fri 08:08:00 PM 40.4161 -81.9822 84° East 473 544 39,000  Level Indianapolis Center
Fri 08:09:01 PM 40.4367 -81.7844 82° East 468 539 39,000  Level Indianapolis Center
Fri 08:10:03 PM 40.4486 -81.6133 85° East 469 540 39,000  Level Indianapolis Center
Fri 08:11:05 PM 40.4644 -81.4422 83° East 470 541 39,000  Level Indianapolis Center
Fri 08:12:06 PM 40.4786 -81.2731 84° East 467 537 39,000  Level Indianapolis Center
Fri 08:13:08 PM 40.4944 -81.1006 83° East 472 543 39,000  Level Indianapolis Center
Fri 08:14:10 PM 40.5078 -80.9297 84° East 470 541 39,000  Level Indianapolis Center
Fri 08:15:11 PM 40.5211 -80.7583 84° East 469 540 39,000  Level Indianapolis Center
Fri 08:16:13 PM 40.5344 -80.5869 84° East 469 540 39,000  Level Indianapolis Center
Fri 08:17:15 PM 40.5492 -80.3867 84° East 468 539 39,000  Level Indianapolis Center
Fri 08:18:24 PM 40.5628 -80.2114 84° East 464 534 39,000  Level Cleveland Center
Fri 08:19:24 PM 40.5744 -80.0419 85° East 464 534 39,000  Level Cleveland Center
Fri 08:20:24 PM 40.5881 -79.8694 84° East 464 534 39,000  Level Cleveland Center
Fri 08:21:24 PM 40.5975 -79.7000 86° East 464 534 39,000  Level Cleveland Center
Fri 08:22:24 PM 40.6106 -79.5300 84° East 464 534 39,000  Level Cleveland Center
Fri 08:23:24 PM 40.6236 -79.3603 84° East 464 534 39,000  Level Cleveland Center
Fri 08:24:24 PM 40.6342 -79.1906 85° East 464 534 39,000  Level Cleveland Center
Fri 08:25:24 PM 40.6444 -79.0206 85° East 464 534 39,000  Level Cleveland Center
Fri 08:26:24 PM 40.6544 -78.8506 86° East 464 534 39,000  Level Cleveland Center
Fri 08:27:24 PM 40.6683 -78.6806 84° East 464 534 39,000  Level Cleveland Center
Fri 08:29:50 PM 40.7147 -78.2489 82° East 477 549 39,000  Level New York Center
Fri 08:30:50 PM 40.7317 -78.0781 82° East 477 549 39,000 -450 Level New York Center
Fri 08:31:50 PM 40.7486 -77.9047 83° East 477 549 38,100 -2,000 Descending New York Center
Fri 08:32:50 PM 40.7631 -77.7281 84° East 477 549 35,000 -2,900 Descending New York Center
Fri 08:33:50 PM 40.7811 -77.5625 82° East 497 572 32,300 -2,600 Descending New York Center
Fri 08:34:50 PM 40.8097 -77.3897 78° East 497 572 29,800 -2,250 Descending New York Center
Fri 08:35:50 PM 40.8303 -77.2053 82° East 484 557 27,800 -1,800 Descending New York Center
Fri 08:36:50 PM 40.8475 -77.0394 82° East 470 541 26,200 -1,650 Descending New York Center
Fri 08:37:50 PM 40.8658 -76.8903 81° East 460 529 24,500 -1,550 Descending New York Center
Fri 08:38:50 PM 40.8864 -76.7272 80° East 460 529 23,100 -1,550 Descending New York Center
Fri 08:39:50 PM 40.9053 -76.5614 81° East 460 529 21,400 -1,650 Descending New York Center
Fri 08:40:50 PM 40.9275 -76.3986 80° East 454 522 19,800 -1,250 Descending New York Center
Fri 08:41:50 PM 40.9475 -76.2408 80° East 449 517 18,900 -1,650 Descending New York Center
Fri 08:42:50 PM 40.9658 -76.0692 82° East 434 499 16,500 -2,150 Descending New York Center
Fri 08:43:50 PM 40.9808 -75.9164 83° East 424 488 14,600 -1,750 Descending New York Center
Fri 08:44:50 PM 40.9969 -75.7800 81° East 403 464 13,000 -1,850 Descending New York Center
Fri 08:45:50 PM 41.0106 -75.6600 81° East 365 420 10,900 -1,450 Descending New York Center
Fri 08:46:50 PM 41.0217 -75.5344 83° East 354 407 10,100 -400 Descending New York Center
Fri 08:47:50 PM 41.0397 -75.3981 80° East 341 392 10,100 -350 Level New York Center
Fri 08:48:50 PM 41.0442 -75.2803 87° East 330 380 9,400 -1,500 Descending New York Center
Fri 08:49:50 PM 41.0400 -75.1753 93° East 310 357 7,100 -1,750 Descending New York Center
Fri 08:50:50 PM 41.0350 -75.0842 94° East 276 318 5,900 -550 Descending New York Center
Fri 08:51:50 PM 40.9989 -74.9858 116° Southeast 263 303 6,000 -700 Climbing New York Center
Fri 08:52:50 PM 40.9600 -74.9036 122° Southeast 281 323 4,500 -1,050 Descending New York Center
Fri 08:53:50 PM 40.9175 -74.8103 121° Southeast 293 337 3,900 -700 Descending New York Center
Fri 08:54:50 PM 40.8775 -74.7036 116° Southeast 293 337 3,100 -450 Descending New York Center
Fri 08:55:50 PM 40.8489 -74.6172 114° Southeast 293 337 3,000 -50 Descending New York Center
Fri 08:56:50 PM 40.8128 -74.5136 115° Southeast 286 329 3,000  Level New York Center
Fri 08:57:50 PM 40.7781 -74.4239 117° Southeast 286 329 3,000 -550 Level New York Center
Fri 08:58:50 PM 40.7450 -74.3428 118° Southeast 286 329 1,900 -650 Descending New York Center
Fri 08:59:50 PM 40.7478 -74.2581 87° East 231 266 1,700 -250 Descending New York Center
Fri 09:00:50 PM 40.7578 -74.1956 78° East 203 234 1,400 -100 Descending New York Center
Fri 09:01:50 PM 40.7925 -74.1506 44° Northeast 166 191 1,500 -300 Climbing New York Center
Fri 09:02:50 PM 40.8186 -74.1136 47° Northeast 148 170 800 -650 Descending New York Center
Fri 09:03:50 PM 40.8425 -74.0764 50° Northeast 138 159 200 6,100 Descending New York Center
Fri 09:04:50 PM 40.8725 -74.0422 41° Northeast 138 159 13,000 84 Climbing New York Center
Fri 09:06:00 PM 40.8501 -74.0608 212° Southwest  Level Estimated
Fri 09:16:53 PM 40.9333 -73.9333 56° Northeast 217 250 1,300  Level New York TRACON
Fri 09:17:53 PM 40.9500 -73.8500 75° East 225 259 1,300  Level New York TRACON
Fri 09:18:53 PM 40.9333 -73.7833 108° East 225 259 1,300  Level New York TRACON
Fri 09:19:53 PM 40.9167 -73.7000 105° East 231 266 1,300  Level New York TRACON
Fri 09:20:53 PM 40.8667 -73.6333 135° Southeast 233 268 1,300  Level New York TRACON
Fri 09:21:53 PM 40.8167 -73.5833 143° Southeast 231 266 1,300  Level New York TRACON

Login

Don't have an account? Register now (free) for customized features, flight alerts, and more!